createdAt,value
2023-01-19T00:00:20.461Z,98742.97
2023-01-19T00:02:47.592Z,98746.09
2023-01-19T00:05:14.991Z,98741.66
2023-01-19T00:07:42.282Z,98746.56
2023-01-19T00:10:10.373Z,98737.34
2023-01-19T00:12:37.106Z,98746.09
2023-01-19T00:15:04.781Z,98751.81
2023-01-19T00:17:31.518Z,98753.47
2023-01-19T00:19:58.286Z,98753.28
2023-01-19T00:22:25.094Z,98767.44
2023-01-19T00:24:51.929Z,98774.00
2023-01-19T00:27:18.778Z,98780.25
2023-01-19T00:29:45.530Z,98777.28
2023-01-19T00:32:12.289Z,98783.03
2023-01-19T00:34:42.707Z,98795.38
2023-01-19T00:37:10.363Z,98796.19
2023-01-19T00:39:37.189Z,98799.63
2023-01-19T00:42:22.946Z,98796.69
2023-01-19T00:44:49.737Z,98803.09
2023-01-19T00:47:16.504Z,98804.06
2023-01-19T00:49:43.451Z,98813.91
2023-01-19T00:52:10.875Z,98813.91
2023-01-19T00:54:37.619Z,98816.88
2023-01-19T00:57:04.479Z,98815.09
2023-01-19T00:59:31.400Z,98826.94
2023-01-19T01:01:58.434Z,98827.22
2023-01-19T01:04:25.356Z,98827.75
2023-01-19T01:06:52.280Z,98830.03
2023-01-19T01:09:18.992Z,98829.22
2023-01-19T01:11:45.959Z,98838.59
2023-01-19T01:14:15.281Z,98843.00
2023-01-19T01:16:42.161Z,98845.47
2023-01-19T01:19:09.079Z,98857.16
2023-01-19T01:21:37.310Z,98853.03
2023-01-19T01:24:04.666Z,98870.00
2023-01-19T01:26:31.560Z,98859.66
2023-01-19T01:28:58.357Z,98867.88
2023-01-19T01:31:25.358Z,98865.44
2023-01-19T01:33:52.086Z,98860.38
2023-01-19T01:36:21.535Z,98858.91
2023-01-19T01:38:48.517Z,98852.16
2023-01-19T01:41:15.318Z,98848.19
2023-01-19T01:44:02.057Z,98855.13
2023-01-19T01:46:31.449Z,98851.50
2023-01-19T01:49:11.149Z,98848.88
2023-01-19T01:51:43.799Z,98827.16
2023-01-19T01:54:25.091Z,98820.59
2023-01-19T01:56:55.931Z,98817.16
2023-01-19T01:59:34.692Z,98828.16
2023-01-19T02:02:24.327Z,98848.72
2023-01-19T02:04:57.882Z,98860.06
2023-01-19T02:07:55.232Z,98847.72
2023-01-19T02:10:41.118Z,98848.91
2023-01-19T02:13:17.884Z,98849.19
2023-01-19T02:15:45.469Z,98879.16
2023-01-19T02:18:12.289Z,98890.13
2023-01-19T02:20:42.791Z,98897.88
2023-01-19T02:23:17.329Z,98904.78
2023-01-19T02:25:44.389Z,98903.28
2023-01-19T02:28:11.775Z,98902.84
2023-01-19T02:30:41.463Z,98905.59
2023-01-19T02:33:08.478Z,98910.22
2023-01-19T02:35:38.046Z,98894.75
2023-01-19T02:38:06.221Z,98899.00
2023-01-19T02:40:33.288Z,98895.19
2023-01-19T02:43:02.725Z,98906.34
2023-01-19T02:45:30.708Z,98915.16
2023-01-19T02:47:57.504Z,98917.13
2023-01-19T02:50:37.334Z,98917.31
2023-01-19T02:53:16.162Z,98923.50
2023-01-19T02:55:50.087Z,98930.47
2023-01-19T02:58:41.506Z,98928.94
2023-01-19T03:01:26.254Z,98922.44
2023-01-19T03:04:04.500Z,98914.94
2023-01-19T03:07:03.255Z,98912.16
2023-01-19T03:09:41.665Z,98914.44
2023-01-19T03:12:24.921Z,98915.72
2023-01-19T03:14:57.565Z,98929.22
2023-01-19T03:17:26.838Z,98951.03
2023-01-19T03:19:54.351Z,98950.06
2023-01-19T03:22:29.758Z,98947.72
2023-01-19T03:25:01.450Z,98934.22
2023-01-19T03:27:40.832Z,98946.66
2023-01-19T03:30:20.435Z,98964.94
2023-01-19T03:32:56.530Z,98985.31
2023-01-19T03:35:26.365Z,99004.22
2023-01-19T03:37:58.213Z,99029.91
2023-01-19T03:40:29.592Z,99006.16
2023-01-19T03:42:56.989Z,99003.44
2023-01-19T03:45:24.036Z,99005.00
2023-01-19T03:47:51.642Z,99010.53
2023-01-19T03:50:27.042Z,98992.03
2023-01-19T03:53:02.809Z,99003.63
2023-01-19T03:55:30.089Z,98983.22
2023-01-19T03:57:56.829Z,98990.81
2023-01-19T04:00:24.317Z,98987.34
2023-01-19T04:02:51.176Z,98989.94
2023-01-19T04:05:19.213Z,98988.19
2023-01-19T04:07:49.020Z,98988.19
2023-01-19T04:10:18.168Z,98991.91
2023-01-19T04:12:45.470Z,98978.66
2023-01-19T04:15:13.120Z,98974.75
2023-01-19T04:17:40.577Z,98972.28
2023-01-19T04:20:08.496Z,98970.38
2023-01-19T04:22:35.693Z,98963.88
2023-01-19T04:25:03.141Z,98974.75
2023-01-19T04:27:29.995Z,98977.28
2023-01-19T04:29:56.926Z,98998.97
2023-01-19T04:32:23.732Z,99006.84
2023-01-19T04:34:50.757Z,99012.31
2023-01-19T04:37:17.803Z,99015.09
2023-01-19T04:39:44.549Z,99023.13
2023-01-19T04:42:11.368Z,99027.69
2023-01-19T04:44:38.119Z,99037.91
2023-01-19T04:47:05.043Z,99051.00
2023-01-19T04:49:32.085Z,99048.91
2023-01-19T04:51:59.559Z,99026.97
2023-01-19T04:54:27.911Z,99028.06
2023-01-19T04:56:54.720Z,99015.94
2023-01-19T04:59:21.613Z,99029.19
2023-01-19T05:01:48.563Z,99022.56
2023-01-19T05:04:15.504Z,99015.09
2023-01-19T05:06:42.328Z,99019.84
2023-01-19T05:09:09.219Z,99025.88
2023-01-19T05:11:36.419Z,99010.97
2023-01-19T05:14:03.229Z,98996.91
2023-01-19T05:16:30.010Z,99006.56
2023-01-19T05:18:56.976Z,99020.22
2023-01-19T05:21:23.747Z,99026.56
2023-01-19T05:23:50.493Z,99049.63
2023-01-19T05:26:17.287Z,99051.31
2023-01-19T05:28:44.024Z,99040.94
2023-01-19T05:31:10.866Z,99030.56
2023-01-19T05:33:37.715Z,99031.44
2023-01-19T05:36:04.589Z,99034.56
2023-01-19T05:38:35.854Z,99034.19
2023-01-19T05:41:03.395Z,99033.06
2023-01-19T05:43:30.166Z,99036.81
2023-01-19T05:45:57.050Z,99053.22
2023-01-19T05:48:23.760Z,99043.84
2023-01-19T05:50:50.531Z,99033.78
2023-01-19T05:53:17.507Z,99029.50
2023-01-19T05:55:44.713Z,99026.31
2023-01-19T05:58:11.459Z,99022.03
2023-01-19T06:00:38.236Z,99027.72
2023-01-19T06:03:06.617Z,99025.34
2023-01-19T06:05:34.098Z,99027.84
2023-01-19T06:08:01.459Z,99029.63
2023-01-19T06:10:28.172Z,99031.94
2023-01-19T06:12:54.910Z,99015.94
2023-01-19T06:15:21.714Z,99006.84
2023-01-19T06:17:48.490Z,99015.25
2023-01-19T06:20:15.586Z,99036.78
2023-01-19T06:22:42.489Z,99022.69
2023-01-19T06:25:09.714Z,99020.31
2023-01-19T06:27:36.575Z,99020.72
2023-01-19T06:30:04.623Z,99000.69
2023-01-19T06:32:31.738Z,99007.22
2023-01-19T06:34:58.454Z,99021.03
2023-01-19T06:37:27.300Z,99023.34
2023-01-19T06:39:54.109Z,99017.69
2023-01-19T06:42:20.841Z,99018.53
2023-01-19T06:44:48.098Z,99026.78
2023-01-19T06:47:17.973Z,99045.44
2023-01-19T06:49:44.697Z,99057.31
2023-01-19T06:52:16.081Z,99046.97
2023-01-19T06:54:45.474Z,99056.34
2023-01-19T06:57:13.399Z,99055.78
2023-01-19T06:59:40.149Z,99062.00
2023-01-19T07:02:26.654Z,99055.66
2023-01-19T07:04:53.984Z,99034.50
2023-01-19T07:07:20.829Z,99044.63
2023-01-19T07:09:48.022Z,99051.66
2023-01-19T07:12:14.880Z,99030.56
2023-01-19T07:14:42.501Z,99025.44
2023-01-19T07:17:09.291Z,99023.69
2023-01-19T07:19:36.468Z,99055.28
2023-01-19T07:22:03.292Z,99053.34
2023-01-19T07:24:34.281Z,99052.66
2023-01-19T07:27:01.173Z,99062.31
2023-01-19T07:29:27.876Z,99071.28
2023-01-19T07:31:54.811Z,99073.91
2023-01-19T07:34:21.729Z,99093.50
2023-01-19T07:36:49.105Z,99078.34
2023-01-19T07:39:16.226Z,99091.31
2023-01-19T07:41:42.935Z,99111.63
2023-01-19T07:44:09.809Z,99113.25
2023-01-19T07:46:36.645Z,99093.94
2023-01-19T07:49:03.388Z,99109.69
2023-01-19T07:51:30.092Z,99122.13
2023-01-19T07:53:56.879Z,99122.50
2023-01-19T07:56:24.589Z,99126.13
2023-01-19T07:58:52.606Z,99135.22
2023-01-19T08:01:19.714Z,99134.38
2023-01-19T08:03:48.212Z,99147.63
2023-01-19T08:06:23.605Z,99139.63
2023-01-19T08:08:50.936Z,99133.72
2023-01-19T08:11:17.715Z,99130.09
2023-01-19T08:13:44.612Z,99136.88
2023-01-19T08:16:11.431Z,99123.09
2023-01-19T08:18:38.423Z,99141.97
2023-01-19T08:21:05.442Z,99142.25
2023-01-19T08:23:32.205Z,99140.19
2023-01-19T08:25:59.083Z,99130.00
2023-01-19T08:28:26.122Z,99115.22
2023-01-19T08:30:55.805Z,99114.50
2023-01-19T08:33:24.335Z,99098.63
2023-01-19T08:35:54.410Z,99119.22
2023-01-19T08:38:21.047Z,99144.06
2023-01-19T08:40:48.750Z,99138.38
2023-01-19T08:43:17.246Z,99140.72
2023-01-19T08:45:50.493Z,99137.97
2023-01-19T08:48:22.432Z,99143.34
2023-01-19T08:50:50.539Z,99145.44
2023-01-19T08:53:17.893Z,99166.28
2023-01-19T08:55:44.811Z,99164.47
2023-01-19T08:58:11.565Z,99171.94
2023-01-19T09:00:39.657Z,99159.06
2023-01-19T09:03:08.952Z,99163.50
2023-01-19T09:05:38.768Z,99166.69
2023-01-19T09:08:09.322Z,99169.31
2023-01-19T09:10:37.860Z,99161.31
2023-01-19T09:13:11.103Z,99165.97
2023-01-19T09:15:39.471Z,99166.81
2023-01-19T09:18:10.321Z,99181.72
2023-01-19T09:20:39.185Z,99165.44
2023-01-19T09:23:06.297Z,99173.19
2023-01-19T09:25:33.274Z,99185.72
2023-01-19T09:28:00.925Z,99171.38
2023-01-19T09:30:28.124Z,99181.56
2023-01-19T09:32:54.948Z,99185.03
2023-01-19T09:35:21.711Z,99195.13
2023-01-19T09:37:48.609Z,99188.47
2023-01-19T09:40:18.244Z,99202.97
2023-01-19T09:42:53.021Z,99216.09
2023-01-19T09:45:34.012Z,99204.66
2023-01-19T09:48:03.002Z,99212.22
2023-01-19T09:50:38.203Z,99228.09
2023-01-19T09:53:19.110Z,99226.72
2023-01-19T09:55:46.051Z,99220.38
2023-01-19T09:58:16.464Z,99216.91
2023-01-19T10:00:49.946Z,99211.41
2023-01-19T10:03:17.664Z,99210.41
2023-01-19T10:05:55.631Z,99177.03
2023-01-19T10:08:41.105Z,99201.75
2023-01-19T10:11:51.895Z,99202.97
2023-01-19T10:14:31.349Z,99194.28
2023-01-19T10:17:09.016Z,99196.50
2023-01-19T10:19:40.553Z,99202.16
2023-01-19T10:22:28.599Z,99209.75
2023-01-19T10:25:07.843Z,99202.84
2023-01-19T10:27:35.775Z,99218.28
2023-01-19T10:30:02.681Z,99213.31
2023-01-19T10:32:34.156Z,99227.41
2023-01-19T10:35:01.474Z,99233.06
2023-01-19T10:37:29.661Z,99238.03
2023-01-19T10:40:16.031Z,99220.38
2023-01-19T10:42:42.848Z,99219.66
2023-01-19T10:45:18.322Z,99217.75
2023-01-19T10:47:47.524Z,99219.69
2023-01-19T10:50:23.705Z,99227.16
2023-01-19T10:53:00.224Z,99227.97
2023-01-19T10:55:38.071Z,99237.22
2023-01-19T10:58:07.618Z,99244.13
2023-01-19T11:00:37.891Z,99250.03
2023-01-19T11:03:22.488Z,99254.19
2023-01-19T11:05:49.741Z,99264.81
2023-01-19T11:08:29.297Z,99270.88
2023-01-19T11:11:04.507Z,99261.34
2023-01-19T11:13:32.309Z,99280.13
2023-01-19T11:16:20.344Z,99293.69
2023-01-19T11:18:52.484Z,99293.81
2023-01-19T11:21:26.825Z,99292.16
2023-01-19T11:24:00.020Z,99303.34
2023-01-19T11:26:27.071Z,99300.03
2023-01-19T11:28:56.195Z,99308.84
2023-01-19T11:31:29.231Z,99308.19
2023-01-19T11:33:59.209Z,99317.44
2023-01-19T11:36:28.927Z,99316.72
2023-01-19T11:38:58.117Z,99319.34
2023-01-19T11:41:35.692Z,99311.63
2023-01-19T11:44:19.402Z,99316.44
2023-01-19T11:46:51.118Z,99321.00
2023-01-19T11:49:27.499Z,99318.81
2023-01-19T11:52:11.278Z,99328.75
2023-01-19T11:54:54.742Z,99330.69
2023-01-19T11:57:21.934Z,99336.34
2023-01-19T11:59:51.319Z,99328.06
2023-01-19T12:02:29.301Z,99340.06
2023-01-19T12:05:01.680Z,99341.44
2023-01-19T12:07:33.176Z,99345.03
2023-01-19T12:10:28.336Z,99353.72
2023-01-19T12:12:56.700Z,99353.16
2023-01-19T12:15:29.425Z,99360.63
2023-01-19T12:18:00.620Z,99374.53
2023-01-19T12:20:40.547Z,99363.47
2023-01-19T12:23:26.536Z,99368.72
2023-01-19T12:26:08.603Z,99373.72
2023-01-19T12:28:41.111Z,99370.22
2023-01-19T12:31:09.214Z,99368.59
2023-01-19T12:33:40.684Z,99365.41
2023-01-19T12:36:10.469Z,99368.50
2023-01-19T12:38:48.129Z,99379.13
2023-01-19T12:41:40.573Z,99382.31
2023-01-19T12:44:10.894Z,99385.75
2023-01-19T12:46:41.204Z,99388.34
2023-01-19T12:49:47.680Z,99393.25
2023-01-19T12:52:22.168Z,99397.47
2023-01-19T12:55:18.155Z,99395.44
2023-01-19T12:58:02.789Z,99394.88
2023-01-19T13:00:33.299Z,99397.69
2023-01-19T13:03:24.605Z,99405.03
2023-01-19T13:05:54.735Z,99416.22
2023-01-19T13:08:30.485Z,99417.56
2023-01-19T13:11:00.531Z,99424.88
2023-01-19T13:13:38.756Z,99420.91
2023-01-19T13:16:21.275Z,99417.41
2023-01-19T13:19:16.683Z,99430.78
2023-01-19T13:21:48.490Z,99448.56
2023-01-19T13:24:17.933Z,99448.84
2023-01-19T13:26:50.569Z,99457.25
2023-01-19T13:29:32.198Z,99465.25
2023-01-19T13:32:04.468Z,99462.38
2023-01-19T13:34:36.427Z,99462.81
2023-01-19T13:37:04.789Z,99471.78
2023-01-19T13:39:44.147Z,99472.22
2023-01-19T13:42:26.057Z,99469.84
2023-01-19T13:44:57.967Z,99479.25
2023-01-19T13:47:34.308Z,99498.53
2023-01-19T13:50:01.973Z,99494.53
2023-01-19T13:52:29.880Z,99498.00
2023-01-19T13:55:03.685Z,99510.00
2023-01-19T13:57:40.648Z,99512.19
2023-01-19T14:00:16.641Z,99516.06
2023-01-19T14:03:00.889Z,99518.00
2023-01-19T14:05:42.535Z,99516.78
2023-01-19T14:08:11.320Z,99521.66
2023-01-19T14:10:56.587Z,99517.81
2023-01-19T14:13:32.802Z,99519.84
2023-01-19T14:16:08.078Z,99516.25
2023-01-19T14:18:36.322Z,99523.69
2023-01-19T14:21:06.074Z,99525.09
2023-01-19T14:23:42.148Z,99524.94
2023-01-19T14:26:46.706Z,99516.53
2023-01-19T14:29:33.831Z,99536.38
2023-01-19T14:32:00.594Z,99545.81
2023-01-19T14:34:42.629Z,99541.22
2023-01-19T14:37:15.444Z,99545.31
2023-01-19T14:39:47.742Z,99545.94
2023-01-19T14:42:18.895Z,99542.63
2023-01-19T14:44:49.948Z,99535.84
2023-01-19T14:47:27.313Z,99539.28
2023-01-19T14:49:55.958Z,99542.63
2023-01-19T14:52:29.763Z,99563.16
2023-01-19T14:54:58.561Z,99564.03
2023-01-19T14:57:25.580Z,99572.22
2023-01-19T14:59:52.903Z,99568.66
2023-01-19T15:02:19.844Z,99557.97
2023-01-19T15:04:48.193Z,99568.31
2023-01-19T15:07:19.274Z,99561.03
2023-01-19T15:09:47.375Z,99561.38
2023-01-19T15:12:17.917Z,99556.81
2023-01-19T15:14:45.811Z,99552.66
2023-01-19T15:17:28.063Z,99558.09
2023-01-19T15:19:56.323Z,99554.06
2023-01-19T15:22:28.369Z,99542.28
2023-01-19T15:24:59.866Z,99536.03
2023-01-19T15:27:27.001Z,99533.66
2023-01-19T15:29:54.338Z,99549.28
2023-01-19T15:32:21.145Z,99562.38
2023-01-19T15:34:47.848Z,99573.81
2023-01-19T15:37:15.075Z,99574.91
2023-01-19T15:39:42.094Z,99580.53
2023-01-19T15:42:15.741Z,99585.41
2023-01-19T15:44:42.527Z,99584.44
2023-01-19T15:47:10.154Z,99580.16
2023-01-19T15:49:36.952Z,99578.31
2023-01-19T15:52:03.836Z,99578.25
2023-01-19T15:54:30.631Z,99601.50
2023-01-19T15:56:57.425Z,99606.88
2023-01-19T15:59:24.246Z,99607.69
2023-01-19T16:01:51.177Z,99615.56
2023-01-19T16:04:18.196Z,99615.91
2023-01-19T16:06:45.100Z,99617.94
2023-01-19T16:09:16.887Z,99620.00
2023-01-19T16:11:43.971Z,99618.66
2023-01-19T16:14:10.693Z,99628.75
2023-01-19T16:16:38.077Z,99627.81
2023-01-19T16:19:04.776Z,99629.56
2023-01-19T16:21:31.584Z,99646.28
2023-01-19T16:23:58.335Z,99650.81
2023-01-19T16:26:32.551Z,99655.00
2023-01-19T16:29:02.020Z,99658.97
2023-01-19T16:31:29.777Z,99666.81
2023-01-19T16:33:56.756Z,99665.38
2023-01-19T16:36:27.987Z,99669.91
2023-01-19T16:39:02.172Z,99669.19
2023-01-19T16:41:29.506Z,99675.50
2023-01-19T16:43:58.233Z,99680.31
2023-01-19T16:46:30.608Z,99679.97
2023-01-19T16:49:00.699Z,99683.88
2023-01-19T16:51:27.337Z,99682.47
2023-01-19T16:53:54.108Z,99678.16
2023-01-19T16:56:20.906Z,99678.50
2023-01-19T16:58:47.740Z,99670.44
2023-01-19T17:01:20.274Z,99661.03
2023-01-19T17:03:47.754Z,99659.25
2023-01-19T17:06:22.919Z,99668.06
2023-01-19T17:08:50.417Z,99668.06
2023-01-19T17:11:20.977Z,99661.88
2023-01-19T17:14:00.154Z,99664.94
2023-01-19T17:16:28.996Z,99663.38
2023-01-19T17:19:00.533Z,99669.94
2023-01-19T17:21:27.724Z,99667.31
2023-01-19T17:23:55.759Z,99670.06
2023-01-19T17:26:25.402Z,99684.00
2023-01-19T17:28:52.340Z,99677.13
2023-01-19T17:31:21.793Z,99669.97
2023-01-19T17:33:50.476Z,99678.53
2023-01-19T17:36:33.381Z,99679.88
2023-01-19T17:39:05.601Z,99682.09
2023-01-19T17:41:35.193Z,99683.78
2023-01-19T17:44:03.546Z,99680.81
2023-01-19T17:46:31.252Z,99687.06
2023-01-19T17:49:00.197Z,99699.47
2023-01-19T17:51:28.555Z,99701.28
2023-01-19T17:53:55.991Z,99716.66
2023-01-19T17:56:29.615Z,99717.94
2023-01-19T17:58:58.075Z,99731.78
2023-01-19T18:01:32.134Z,99746.31
2023-01-19T18:03:59.743Z,99737.97
2023-01-19T18:06:26.625Z,99745.97
2023-01-19T18:08:54.180Z,99745.97
2023-01-19T18:11:21.697Z,99744.75
2023-01-19T18:13:50.591Z,99751.91
2023-01-19T18:16:24.499Z,99750.72
2023-01-19T18:18:53.752Z,99751.66
2023-01-19T18:21:21.915Z,99749.84
2023-01-19T18:23:50.347Z,99743.97
2023-01-19T18:26:19.805Z,99743.59
2023-01-19T18:28:47.612Z,99744.41
2023-01-19T18:31:17.674Z,99746.31
2023-01-19T18:33:44.416Z,99746.22
2023-01-19T18:36:11.567Z,99743.81
2023-01-19T18:38:39.013Z,99739.91
2023-01-19T18:41:14.502Z,99740.88
2023-01-19T18:43:41.736Z,99736.72
2023-01-19T18:46:08.877Z,99742.31
2023-01-19T18:48:37.406Z,99741.56
2023-01-19T18:51:09.032Z,99734.22
2023-01-19T18:53:35.848Z,99727.78
2023-01-19T18:56:03.501Z,99728.00
2023-01-19T18:58:32.523Z,99724.56
2023-01-19T19:01:01.091Z,99722.75
2023-01-19T19:03:28.530Z,99723.00
2023-01-19T19:05:55.344Z,99716.94
2023-01-19T19:08:23.496Z,99723.84
2023-01-19T19:10:50.269Z,99713.25
2023-01-19T19:13:17.918Z,99722.31
2023-01-19T19:15:44.734Z,99722.44
2023-01-19T19:18:13.918Z,99715.88
2023-01-19T19:20:43.208Z,99729.72
2023-01-19T19:23:11.352Z,99724.50
2023-01-19T19:25:38.605Z,99734.25
2023-01-19T19:28:05.775Z,99735.91
2023-01-19T19:30:34.622Z,99735.09
2023-01-19T19:33:01.603Z,99740.59
2023-01-19T19:35:28.405Z,99735.78
2023-01-19T19:37:57.548Z,99740.69
2023-01-19T19:40:28.469Z,99743.94
2023-01-19T19:42:58.353Z,99735.44
2023-01-19T19:45:25.304Z,99741.66
2023-01-19T19:47:52.049Z,99730.19
2023-01-19T19:50:18.874Z,99741.19
2023-01-19T19:52:45.729Z,99745.63
2023-01-19T19:55:12.857Z,99736.34
2023-01-19T19:57:39.702Z,99743.56
2023-01-19T20:00:07.785Z,99740.94
2023-01-19T20:02:37.286Z,99745.25
2023-01-19T20:05:05.162Z,99747.25
2023-01-19T20:07:32.753Z,99746.19
2023-01-19T20:09:59.670Z,99754.31
2023-01-19T20:12:26.372Z,99748.69
2023-01-19T20:14:53.226Z,99755.13
2023-01-19T20:17:20.875Z,99754.78
2023-01-19T20:19:49.033Z,99753.94
2023-01-19T20:22:16.110Z,99765.72
2023-01-19T20:24:42.901Z,99765.72
2023-01-19T20:27:09.639Z,99759.88
2023-01-19T20:29:36.548Z,99768.47
2023-01-19T20:32:03.605Z,99774.28
2023-01-19T20:34:33.376Z,99776.91
2023-01-19T20:37:01.704Z,99774.03
2023-01-19T20:39:30.276Z,99772.41
2023-01-19T20:41:57.068Z,99781.44
2023-01-19T20:44:25.757Z,99774.91
2023-01-19T20:46:53.659Z,99769.91
2023-01-19T20:49:22.345Z,99770.03
2023-01-19T20:51:51.277Z,99769.28
2023-01-19T20:54:19.807Z,99775.97
2023-01-19T20:56:46.516Z,99770.97
2023-01-19T20:59:13.649Z,99780.38
2023-01-19T21:01:41.605Z,99784.31
2023-01-19T21:04:09.058Z,99783.94
2023-01-19T21:06:36.601Z,99782.63
2023-01-19T21:09:04.066Z,99778.72
2023-01-19T21:11:31.071Z,99780.63
2023-01-19T21:13:57.811Z,99782.75
2023-01-19T21:16:31.338Z,99798.22
2023-01-19T21:18:58.456Z,99809.44
2023-01-19T21:21:30.856Z,99821.09
2023-01-19T21:24:00.447Z,99828.47
2023-01-19T21:26:29.888Z,99811.94
2023-01-19T21:29:01.424Z,99820.00
2023-01-19T21:31:28.719Z,99813.41
2023-01-19T21:33:57.033Z,99827.91
2023-01-19T21:36:24.655Z,99827.56
2023-01-19T21:38:52.295Z,99844.97
2023-01-19T21:41:19.532Z,99844.31
2023-01-19T21:43:47.704Z,99831.00
2023-01-19T21:46:22.124Z,99850.56
2023-01-19T21:48:49.175Z,99853.63
2023-01-19T21:51:15.899Z,99851.25
2023-01-19T21:53:43.893Z,99856.34
2023-01-19T21:56:11.326Z,99875.88
2023-01-19T21:58:38.754Z,99859.59
2023-01-19T22:01:11.021Z,99872.72
2023-01-19T22:03:38.407Z,99855.97
2023-01-19T22:06:13.813Z,99862.78
2023-01-19T22:08:41.442Z,99877.31
2023-01-19T22:11:10.819Z,99871.13
2023-01-19T22:13:38.762Z,99865.06
2023-01-19T22:16:08.948Z,99858.94
2023-01-19T22:18:41.278Z,99865.03
2023-01-19T22:21:08.945Z,99853.59
2023-01-19T22:23:35.931Z,99853.38
2023-01-19T22:26:03.787Z,99848.25
2023-01-19T22:28:30.834Z,99857.19
2023-01-19T22:31:17.957Z,99856.47
2023-01-19T22:33:45.365Z,99875.75
2023-01-19T22:36:19.940Z,99876.69
2023-01-19T22:38:58.273Z,99869.81
2023-01-19T22:41:30.996Z,99862.91
2023-01-19T22:44:00.701Z,99851.00
2023-01-19T22:46:30.215Z,99856.34
2023-01-19T22:48:57.328Z,99855.75
2023-01-19T22:51:25.729Z,99841.13
2023-01-19T22:53:52.816Z,99838.25
2023-01-19T22:56:21.803Z,99819.81
2023-01-19T22:58:48.933Z,99820.25
2023-01-19T23:01:37.174Z,99807.78
2023-01-19T23:04:05.519Z,99811.69
2023-01-19T23:06:35.125Z,99816.94
2023-01-19T23:09:07.575Z,99795.38
2023-01-19T23:11:37.775Z,99778.59
2023-01-19T23:14:07.347Z,99775.97
2023-01-19T23:16:34.805Z,99784.66
2023-01-19T23:19:01.687Z,99783.81
2023-01-19T23:21:30.486Z,99794.91
2023-01-19T23:23:59.720Z,99789.75
2023-01-19T23:26:27.176Z,99782.63
2023-01-19T23:28:59.259Z,99766.19
2023-01-19T23:31:31.477Z,99773.72
2023-01-19T23:34:02.410Z,99773.84
2023-01-19T23:36:31.003Z,99775.34
2023-01-19T23:39:00.653Z,99782.38
2023-01-19T23:41:29.241Z,99790.81
2023-01-19T23:43:56.236Z,99790.72
2023-01-19T23:46:23.309Z,99789.03
2023-01-19T23:48:50.366Z,99793.22
2023-01-19T23:51:23.117Z,99785.75
2023-01-19T23:53:50.545Z,99790.72
2023-01-19T23:56:20.630Z,99775.72
2023-01-19T23:58:51.894Z,99770.13
